Time;durP1;ratioP1;P1;durP2;ratioP2;P2;SDS_P1;SDS_P2;PMS_P1;PMS_P2;Temp;Humidity;BMP_temperature;BMP_pressure;BME280_temperature;BME280_humidity;BME280_pressure;Samples;Min_cycle;Max_cycle;Signal;HPM_P1;HPM_P2
2021/03/13 00:01:55;;;;;;;10.65;5.30;;;;;;;;;;5035424;28;20037;-56
2021/03/13 00:04:21;;;;;;;5.68;3.75;;;;;;;;;;5017757;28;20029;-56
2021/03/13 00:06:48;;;;;;;7.88;4.68;;;;;;;;;;5035673;28;20032;-56
2021/03/13 00:09:15;;;;;;;7.65;4.63;;;;;;;;;;5035445;28;20088;-56
2021/03/13 00:11:42;;;;;;;8.10;4.75;;;;;;;;;;5035423;28;20029;-56
2021/03/13 00:14:08;;;;;;;7.87;4.97;;;;;;;;;;5035237;28;20026;-56
2021/03/13 00:16:35;;;;;;;13.90;7.03;;;;;;;;;;5035376;28;20057;-56
2021/03/13 00:19:02;;;;;;;17.60;9.67;;;;;;;;;;5035240;28;20033;-55
2021/03/13 00:21:29;;;;;;;9.10;5.20;;;;;;;;;;5035106;28;20048;-55
2021/03/13 00:23:56;;;;;;;6.38;4.57;;;;;;;;;;5035045;28;20053;-56
2021/03/13 00:26:22;;;;;;;8.27;4.53;;;;;;;;;;5035058;28;20560;-55
2021/03/13 00:28:49;;;;;;;6.17;4.40;;;;;;;;;;5034954;28;20037;-55
2021/03/13 00:31:16;;;;;;;9.47;4.23;;;;;;;;;;5035009;28;20025;-55
2021/03/13 00:33:43;;;;;;;7.93;4.27;;;;;;;;;;5035133;28;20084;-55
2021/03/13 00:36:10;;;;;;;5.27;3.70;;;;;;;;;;5036271;28;20052;-55
2021/03/13 00:38:37;;;;;;;8.67;4.93;;;;;;;;;;5034856;28;20033;-55
2021/03/13 00:41:06;;;;;;;10.27;4.47;;;;;;;;;;5035027;28;20022;-55
2021/03/13 00:43:32;;;;;;;14.80;4.37;;;;;;;;;;5034863;28;20429;-55
2021/03/13 00:45:59;;;;;;;16.50;4.83;;;;;;;;;;5034875;28;20033;-55
2021/03/13 00:48:26;;;;;;;15.67;4.87;;;;;;;;;;5034674;28;20361;-55
2021/03/13 00:50:53;;;;;;;10.37;4.53;;;;;;;;;;5034565;28;20048;-55
2021/03/13 00:53:19;;;;;;;6.93;4.27;;;;;;;;;;5034591;28;20464;-55
2021/03/13 00:55:46;;;;;;;8.73;4.23;;;;;;;;;;5034571;28;20362;-55
2021/03/13 00:58:13;;;;;;;11.80;4.60;;;;;;;;;;5034452;28;20121;-55
2021/03/13 01:00:40;;;;;;;14.03;5.00;;;;;;;;;;5033844;28;20029;-55
2021/03/13 01:03:07;;;;;;;10.13;5.40;;;;;;;;;;5034613;28;20021;-55
2021/03/13 01:05:34;;;;;;;7.83;5.07;;;;;;;;;;5034606;28;20039;-55
2021/03/13 01:08:01;;;;;;;8.20;4.73;;;;;;;;;;5034350;28;20450;-55
2021/03/13 01:10:35;;;;;;;10.27;5.10;;;;;;;;;;5034312;28;20476;-55
2021/03/13 01:13:02;;;;;;;8.25;4.38;;;;;;;;;;5034355;28;20037;-55
2021/03/13 01:15:30;;;;;;;7.17;4.33;;;;;;;;;;5034209;28;20060;-55
2021/03/13 01:17:56;;;;;;;7.53;4.43;;;;;;;;;;5034228;28;20480;-55
2021/03/13 01:20:24;;;;;;;9.43;4.50;;;;;;;;;;5034216;28;20022;-55
2021/03/13 01:22:51;;;;;;;9.17;5.80;;;;;;;;;;5034223;28;20025;-55
2021/03/13 01:25:18;;;;;;;8.90;4.90;;;;;;;;;;5034033;28;20464;-55
2021/03/13 01:27:45;;;;;;;10.67;5.83;;;;;;;;;;5034020;28;20032;-55
2021/03/13 01:30:16;;;;;;;8.87;5.30;;;;;;;;;;5033947;28;20025;-55
2021/03/13 01:32:43;;;;;;;7.77;4.80;;;;;;;;;;5034044;28;20033;-55
2021/03/13 01:35:11;;;;;;;6.93;4.47;;;;;;;;;;5035282;28;20552;-55
2021/03/13 01:37:38;;;;;;;8.13;4.57;;;;;;;;;;5033897;28;20030;-55
2021/03/13 01:40:06;;;;;;;6.97;4.90;;;;;;;;;;5033802;28;20033;-55
2021/03/13 01:42:34;;;;;;;9.00;5.93;;;;;;;;;;5033810;28;20017;-55
2021/03/13 01:45:01;;;;;;;10.60;6.53;;;;;;;;;;5033529;28;20030;-55
2021/03/13 01:47:29;;;;;;;9.23;5.47;;;;;;;;;;5033594;28;20076;-55
2021/03/13 01:49:57;;;;;;;8.57;5.60;;;;;;;;;;5033628;28;20032;-55
2021/03/13 01:52:24;;;;;;;9.57;5.80;;;;;;;;;;5033524;28;20025;-55
2021/03/13 01:54:51;;;;;;;9.53;5.77;;;;;;;;;;5033545;28;20487;-55
2021/03/13 01:57:18;;;;;;;10.47;4.97;;;;;;;;;;5033274;28;20021;-55
2021/03/13 01:59:45;;;;;;;7.60;5.47;;;;;;;;;;5033269;28;20034;-55
2021/03/13 02:02:13;;;;;;;12.50;5.53;;;;;;;;;;5033548;28;20432;-55
2021/03/13 02:04:40;;;;;;;14.87;5.07;;;;;;;;;;5033353;28;20104;-55
2021/03/13 02:07:07;;;;;;;13.43;6.50;;;;;;;;;;5033432;28;20026;-55
2021/03/13 02:09:34;;;;;;;12.87;5.27;;;;;;;;;;5033137;28;20021;-55
2021/03/13 02:12:10;;;;;;;12.53;5.57;;;;;;;;;;5032402;28;20021;-55
2021/03/13 02:14:39;;;;;;;9.03;5.83;;;;;;;;;;5033213;28;20021;-55
2021/03/13 02:17:11;;;;;;;15.67;6.43;;;;;;;;;;5033318;28;20102;-55
2021/03/13 02:20:10;;;;;;;8.93;5.07;;;;;;;;;;5033002;28;20033;-55
2021/03/13 02:22:37;;;;;;;8.93;6.20;;;;;;;;;;4979304;28;20037;-55
2021/03/13 02:25:06;;;;;;;12.90;5.63;;;;;;;;;;5033156;28;20040;-55
2021/03/13 02:27:40;;;;;;;9.97;5.47;;;;;;;;;;5032968;28;20025;-54
2021/03/13 02:30:13;;;;;;;15.05;6.18;;;;;;;;;;5033006;28;20029;-55
2021/03/13 02:32:40;;;;;;;10.33;5.47;;;;;;;;;;5033083;28;20100;-55
2021/03/13 02:35:18;;;;;;;13.23;5.10;;;;;;;;;;5034352;28;20043;-55
2021/03/13 02:37:51;;;;;;;20.43;5.80;;;;;;;;;;5032972;28;20022;-55
2021/03/13 02:40:20;;;;;;;7.40;5.13;;;;;;;;;;5032695;28;20488;-55
2021/03/13 02:42:53;;;;;;;12.43;5.37;;;;;;;;;;5032834;28;20100;-54
2021/03/13 02:45:22;;;;;;;11.03;5.97;;;;;;;;;;5032658;28;20060;-54
2021/03/13 02:47:50;;;;;;;22.07;6.47;;;;;;;;;;5033066;28;20075;-54
2021/03/13 02:50:17;;;;;;;11.33;6.00;;;;;;;;;;5032695;28;20025;-54
2021/03/13 02:52:44;;;;;;;11.50;5.70;;;;;;;;;;5032668;28;20022;-55
2021/03/13 02:55:13;;;;;;;12.10;5.10;;;;;;;;;;5032775;28;20087;-54
2021/03/13 02:57:40;;;;;;;8.63;5.37;;;;;;;;;;5032520;28;20476;-55
2021/03/13 03:00:08;;;;;;;14.10;4.53;;;;;;;;;;5032666;28;20037;-54
2021/03/13 03:02:36;;;;;;;17.37;5.73;;;;;;;;;;5032559;28;20080;-54
2021/03/13 03:05:03;;;;;;;14.03;5.90;;;;;;;;;;5032588;28;20507;-54
2021/03/13 03:07:30;;;;;;;16.97;5.97;;;;;;;;;;5032442;28;20026;-54
2021/03/13 03:09:57;;;;;;;9.80;5.23;;;;;;;;;;5032517;28;20048;-54
2021/03/13 03:12:25;;;;;;;8.13;5.03;;;;;;;;;;5032537;28;20055;-54
2021/03/13 03:14:52;;;;;;;17.03;5.97;;;;;;;;;;5032486;28;20037;-55
2021/03/13 03:17:20;;;;;;;9.37;4.63;;;;;;;;;;5032575;28;20040;-54
2021/03/13 03:19:48;;;;;;;39.80;6.40;;;;;;;;;;5032400;28;20089;-54
2021/03/13 03:22:15;;;;;;;10.80;5.37;;;;;;;;;;5032309;28;20025;-54
2021/03/13 03:24:43;;;;;;;15.47;5.17;;;;;;;;;;5035912;28;20040;-54
2021/03/13 03:27:09;;;;;;;11.03;4.77;;;;;;;;;;5036208;28;20034;-54
2021/03/13 03:29:36;;;;;;;11.47;5.40;;;;;;;;;;5036241;28;20101;-54
2021/03/13 03:32:03;;;;;;;7.80;5.17;;;;;;;;;;5036516;28;20072;-54
2021/03/13 03:34:30;;;;;;;11.20;4.67;;;;;;;;;;5036110;28;20302;-54
2021/03/13 03:36:57;;;;;;;14.70;5.93;;;;;;;;;;5036826;28;20050;-54
2021/03/13 03:39:24;;;;;;;11.03;6.00;;;;;;;;;;5036090;28;20041;-54
2021/03/13 03:41:52;;;;;;;12.77;5.17;;;;;;;;;;5036123;28;20053;-54
2021/03/13 03:44:20;;;;;;;10.57;5.53;;;;;;;;;;5036061;28;20100;-54
2021/03/13 03:46:49;;;;;;;9.37;5.67;;;;;;;;;;5036048;28;20101;-54
2021/03/13 03:49:18;;;;;;;8.67;6.00;;;;;;;;;;5035800;28;20037;-54
2021/03/13 03:51:45;;;;;;;11.10;5.90;;;;;;;;;;5035966;28;20036;-54
2021/03/13 03:54:13;;;;;;;10.63;6.23;;;;;;;;;;5035733;28;20079;-54
2021/03/13 03:56:43;;;;;;;11.33;6.13;;;;;;;;;;5035727;28;20392;-54
2021/03/13 03:59:11;;;;;;;12.57;6.77;;;;;;;;;;5035515;28;20073;-54
2021/03/13 04:01:39;;;;;;;15.97;6.00;;;;;;;;;;5035721;28;20403;-54
2021/03/13 04:04:08;;;;;;;10.37;6.00;;;;;;;;;;5035740;28;20032;-54
2021/03/13 04:06:35;;;;;;;10.77;6.30;;;;;;;;;;5035731;28;20026;-54
2021/03/13 04:09:04;;;;;;;9.63;5.77;;;;;;;;;;5035549;28;20104;-54
2021/03/13 04:11:31;;;;;;;9.50;4.90;;;;;;;;;;5035543;28;20065;-54
2021/03/13 04:13:59;;;;;;;8.80;5.53;;;;;;;;;;5035396;28;20034;-54
2021/03/13 04:16:28;;;;;;;7.87;5.60;;;;;;;;;;5035284;28;20033;-54
2021/03/13 04:18:55;;;;;;;12.23;6.50;;;;;;;;;;5035313;28;20029;-54
2021/03/13 04:21:22;;;;;;;12.77;5.83;;;;;;;;;;5035343;28;20479;-54
2021/03/13 04:23:49;;;;;;;10.47;6.00;;;;;;;;;;5035344;28;20029;-54
2021/03/13 04:26:20;;;;;;;15.63;6.50;;;;;;;;;;5035190;28;20484;-54
2021/03/13 04:28:47;;;;;;;16.33;7.23;;;;;;;;;;5035244;28;20032;-54
2021/03/13 04:31:14;;;;;;;17.40;6.57;;;;;;;;;;5035294;28;20029;-54
2021/03/13 04:33:42;;;;;;;14.43;6.13;;;;;;;;;;5017343;28;20029;-54
2021/03/13 04:36:10;;;;;;;13.93;6.17;;;;;;;;;;5035442;28;20500;-54
2021/03/13 04:38:37;;;;;;;12.83;5.97;;;;;;;;;;5035045;28;20037;-54
2021/03/13 04:41:05;;;;;;;12.07;5.30;;;;;;;;;;5035307;28;20021;-54
2021/03/13 04:43:32;;;;;;;12.43;5.70;;;;;;;;;;5034948;28;20029;-54
2021/03/13 04:46:00;;;;;;;9.17;5.43;;;;;;;;;;5034968;28;20485;-54
2021/03/13 04:48:27;;;;;;;9.30;6.30;;;;;;;;;;5034685;28;20395;-54
2021/03/13 04:50:58;;;;;;;8.17;5.70;;;;;;;;;;5035193;28;20083;-54
2021/03/13 04:53:24;;;;;;;11.80;5.50;;;;;;;;;;5034780;28;20025;-54
2021/03/13 04:55:51;;;;;;;10.17;6.30;;;;;;;;;;5034744;28;20022;-54
2021/03/13 04:58:18;;;;;;;11.73;6.83;;;;;;;;;;5034416;28;20025;-54
2021/03/13 05:00:46;;;;;;;12.70;6.83;;;;;;;;;;5034555;28;20029;-54
2021/03/13 05:03:13;;;;;;;11.13;6.73;;;;;;;;;;5034498;28;20461;-54
2021/03/13 05:05:39;;;;;;;13.63;7.33;;;;;;;;;;5034391;28;20119;-54
2021/03/13 05:08:06;;;;;;;13.07;6.23;;;;;;;;;;5034513;28;20025;-54
2021/03/13 05:10:33;;;;;;;9.13;6.23;;;;;;;;;;5034468;28;20025;-54
2021/03/13 05:13:00;;;;;;;12.23;6.67;;;;;;;;;;5034280;28;20030;-54
2021/03/13 05:15:27;;;;;;;12.43;6.30;;;;;;;;;;5034203;28;20022;-54
2021/03/13 05:17:54;;;;;;;8.87;6.07;;;;;;;;;;5034117;28;20034;-54
2021/03/13 05:20:21;;;;;;;9.17;6.27;;;;;;;;;;5034242;28;20029;-54
2021/03/13 05:22:49;;;;;;;11.17;6.23;;;;;;;;;;5034172;28;20384;-54
2021/03/13 05:25:16;;;;;;;8.03;5.53;;;;;;;;;;5034020;28;20507;-54
2021/03/13 05:27:43;;;;;;;9.93;6.10;;;;;;;;;;5016282;28;20504;-54
2021/03/13 05:30:10;;;;;;;12.23;6.57;;;;;;;;;;5033957;28;20033;-54
2021/03/13 05:32:38;;;;;;;14.70;6.73;;;;;;;;;;5034041;28;20028;-54
2021/03/13 05:35:06;;;;;;;10.53;6.03;;;;;;;;;;5033934;28;20100;-54
2021/03/13 05:37:32;;;;;;;10.73;6.47;;;;;;;;;;5033491;28;20049;-54
2021/03/13 05:39:59;;;;;;;11.10;5.97;;;;;;;;;;5033654;28;20033;-54
2021/03/13 05:42:27;;;;;;;11.73;5.90;;;;;;;;;;5033666;28;20028;-54
2021/03/13 05:44:55;;;;;;;11.73;6.47;;;;;;;;;;5016294;28;20026;-54
2021/03/13 05:47:22;;;;;;;11.90;6.60;;;;;;;;;;5033514;28;20024;-54
2021/03/13 05:49:55;;;;;;;9.50;6.37;;;;;;;;;;5033854;28;20057;-54
2021/03/13 05:52:23;;;;;;;8.50;5.57;;;;;;;;;;5033533;28;20029;-54
2021/03/13 05:54:51;;;;;;;8.90;6.30;;;;;;;;;;5033626;28;20109;-54
2021/03/13 05:57:18;;;;;;;13.33;6.67;;;;;;;;;;5033659;28;20424;-54
2021/03/13 05:59:45;;;;;;;11.50;6.67;;;;;;;;;;5033304;28;20048;-54
2021/03/13 06:02:12;;;;;;;11.73;7.23;;;;;;;;;;5033376;28;20100;-53
2021/03/13 06:04:39;;;;;;;9.43;6.17;;;;;;;;;;5033307;28;20065;-54
2021/03/13 06:07:06;;;;;;;13.20;6.90;;;;;;;;;;5033371;28;20080;-54
2021/03/13 06:09:33;;;;;;;12.47;7.57;;;;;;;;;;5033171;28;20033;-54
2021/03/13 06:11:59;;;;;;;13.77;7.90;;;;;;;;;;5033191;28;20033;-54
2021/03/13 06:14:26;;;;;;;12.27;7.77;;;;;;;;;;5015576;28;20693;-54
2021/03/13 06:16:53;;;;;;;13.37;7.53;;;;;;;;;;5033158;28;20503;-53
2021/03/13 06:19:20;;;;;;;12.90;7.60;;;;;;;;;;5032962;28;20045;-54
2021/03/13 06:21:47;;;;;;;13.37;7.40;;;;;;;;;;5033153;28;20022;-54
2021/03/13 06:24:32;;;;;;;15.03;7.97;;;;;;;;;;5033024;28;20486;-53
2021/03/13 06:27:03;;;;;;;15.50;8.53;;;;;;;;;;5033121;28;20025;-54
2021/03/13 06:29:31;;;;;;;8.97;6.30;;;;;;;;;;5033007;28;20424;-54
2021/03/13 06:32:14;;;;;;;10.77;7.20;;;;;;;;;;5032993;28;20044;-53
2021/03/13 06:34:41;;;;;;;12.20;6.37;;;;;;;;;;5033069;28;20029;-54
2021/03/13 06:37:21;;;;;;;13.47;7.57;;;;;;;;;;5034214;28;20124;-54
2021/03/13 06:39:48;;;;;;;11.03;7.13;;;;;;;;;;5032730;28;20030;-54
2021/03/13 06:42:34;;;;;;;11.70;6.47;;;;;;;;;;5032903;28;20030;-54
2021/03/13 06:45:02;;;;;;;17.00;8.17;;;;;;;;;;5032830;28;20029;-54
2021/03/13 06:47:36;;;;;;;11.57;7.20;;;;;;;;;;5032715;28;20033;-53
2021/03/13 06:50:17;;;;;;;11.10;7.20;;;;;;;;;;5032883;28;20441;-53
2021/03/13 06:52:49;;;;;;;11.77;6.87;;;;;;;;;;5033003;28;20376;-53
2021/03/13 06:55:17;;;;;;;9.30;5.93;;;;;;;;;;5032794;28;20017;-53
2021/03/13 06:57:44;;;;;;;12.87;6.63;;;;;;;;;;5033202;28;20037;-53
2021/03/13 07:00:11;;;;;;;12.47;7.43;;;;;;;;;;5036796;28;20033;-53
2021/03/13 07:02:38;;;;;;;14.43;7.40;;;;;;;;;;5036766;28;20432;-54
2021/03/13 07:05:09;;;;;;;13.03;6.70;;;;;;;;;;5036605;28;20396;-53
2021/03/13 07:07:36;;;;;;;14.37;7.80;;;;;;;;;;5036630;28;20072;-54
2021/03/13 07:10:06;;;;;;;11.73;7.23;;;;;;;;;;5036708;28;20033;-54
2021/03/13 07:12:40;;;;;;;10.63;6.50;;;;;;;;;;5036657;28;20057;-54
2021/03/13 07:15:20;;;;;;;7.82;6.15;;;;;;;;;;5036699;28;20033;-53
2021/03/13 07:17:49;;;;;;;12.40;6.70;;;;;;;;;;5036450;28;20017;-53
2021/03/13 07:20:16;;;;;;;14.23;7.33;;;;;;;;;;5036270;28;20060;-53
2021/03/13 07:22:44;;;;;;;10.30;6.97;;;;;;;;;;5036422;28;20160;-53
2021/03/13 07:25:11;;;;;;;13.33;5.57;;;;;;;;;;5036969;28;20365;-53
2021/03/13 07:27:40;;;;;;;8.33;5.73;;;;;;;;;;5036414;28;20018;-54
2021/03/13 07:30:14;;;;;;;10.30;6.60;;;;;;;;;;5036222;28;20025;-53
2021/03/13 07:32:47;;;;;;;10.65;6.13;;;;;;;;;;5036370;28;20079;-54
2021/03/13 07:35:15;;;;;;;10.57;6.77;;;;;;;;;;5036077;28;20053;-53
2021/03/13 07:37:42;;;;;;;9.13;6.53;;;;;;;;;;5037498;28;20500;-53
2021/03/13 07:40:14;;;;;;;9.50;6.47;;;;;;;;;;5036012;28;20060;-53
2021/03/13 07:42:41;;;;;;;11.83;6.77;;;;;;;;;;5036080;28;20017;-53
2021/03/13 07:45:12;;;;;;;9.17;6.20;;;;;;;;;;5035894;28;20025;-53
2021/03/13 07:47:39;;;;;;;9.63;6.80;;;;;;;;;;5035899;28;20731;-53
2021/03/13 07:50:25;;;;;;;10.97;6.10;;;;;;;;;;5035939;28;20049;-53
2021/03/13 07:52:52;;;;;;;8.53;6.40;;;;;;;;;;5035688;28;20052;-54
2021/03/13 07:55:32;;;;;;;9.80;6.47;;;;;;;;;;5035933;28;20025;-53
2021/03/13 07:57:59;;;;;;;10.13;5.63;;;;;;;;;;5035533;28;20350;-53
2021/03/13 08:00:45;;;;;;;7.93;5.57;;;;;;;;;;5035723;28;20270;-54
2021/03/13 08:03:11;;;;;;;;;;;;;;;;;;5036025;28;20318;-53
2021/03/13 08:05:55;;;;;;;8.60;4.73;;;;;;;;;;5035716;28;19912;-53
2021/03/13 08:08:34;;;;;;;8.17;5.10;;;;;;;;;;5035509;28;20342;-53
2021/03/13 08:11:01;;;;;;;9.17;5.43;;;;;;;;;;5035555;28;20254;-53
2021/03/13 08:13:27;;;;;;;9.37;5.70;;;;;;;;;;5035395;28;20662;-53
2021/03/13 08:16:08;;;;;;;8.10;5.63;;;;;;;;;;5035350;28;20261;-53
2021/03/13 08:18:54;;;;;;;11.63;6.83;;;;;;;;;;5035374;28;20681;-53
2021/03/13 08:21:21;;;;;;;10.27;5.77;;;;;;;;;;5035316;28;20353;-53
2021/03/13 08:23:48;;;;;;;9.33;5.73;;;;;;;;;;5035286;28;20251;-54
2021/03/13 08:26:15;;;;;;;8.47;5.07;;;;;;;;;;5035903;28;20642;-54
2021/03/13 08:28:49;;;;;;;6.57;4.90;;;;;;;;;;5017362;28;20787;-54
2021/03/13 08:31:25;;;;;;;10.50;5.23;;;;;;;;;;5035243;28;20317;-53
2021/03/13 08:33:58;;;;;;;7.80;5.30;;;;;;;;;;5035005;28;20258;-53
2021/03/13 08:36:26;;;;;;;8.03;5.50;;;;;;;;;;5036380;28;20300;-53
2021/03/13 08:38:53;;;;;;;9.33;5.43;;;;;;;;;;5034950;28;20644;-53
2021/03/13 08:41:38;;;;;;;9.77;5.30;;;;;;;;;;5034942;28;20273;-53
2021/03/13 08:44:05;;;;;;;7.57;5.35;;;;;;;;;;5034847;28;20322;-53
2021/03/13 08:46:47;;;;;;;7.67;5.13;;;;;;;;;;5034855;28;20058;-53
2021/03/13 08:49:17;;;;;;;8.23;4.67;;;;;;;;;;5034707;28;20255;-53
2021/03/13 08:51:44;;;;;;;6.63;4.70;;;;;;;;;;5034682;28;20251;-53
2021/03/13 08:54:10;;;;;;;8.87;4.93;;;;;;;;;;5034659;28;20259;-53
2021/03/13 08:56:41;;;;;;;8.43;5.13;;;;;;;;;;5034654;28;20338;-53
2021/03/13 08:59:15;;;;;;;10.07;5.47;;;;;;;;;;5034477;28;20293;-53
2021/03/13 09:01:43;;;;;;;7.70;4.57;;;;;;;;;;5034483;28;20266;-53
2021/03/13 09:04:10;;;;;;;8.33;4.50;;;;;;;;;;5034495;28;20080;-53
2021/03/13 09:06:40;;;;;;;7.17;4.53;;;;;;;;;;5034604;28;20330;-53
2021/03/13 09:09:11;;;;;;;9.50;4.67;;;;;;;;;;5034383;28;20262;-53
2021/03/13 09:11:40;;;;;;;6.33;4.70;;;;;;;;;;5034434;28;20322;-53
2021/03/13 09:14:06;;;;;;;6.27;4.40;;;;;;;;;;5034352;28;20258;-54
2021/03/13 09:16:37;;;;;;;6.60;4.40;;;;;;;;;;5034207;28;20259;-53
2021/03/13 09:19:04;;;;;;;5.97;4.20;;;;;;;;;;5034027;28;20291;-53
2021/03/13 09:21:40;;;;;;;7.73;4.73;;;;;;;;;;5033620;28;20247;-54
2021/03/13 09:24:07;;;;;;;7.37;4.80;;;;;;;;;;5034078;28;20294;-54
2021/03/13 09:26:34;;;;;;;8.00;4.27;;;;;;;;;;5034241;28;20243;-53
2021/03/13 09:29:02;;;;;;;6.97;4.67;;;;;;;;;;5033925;28;20254;-53
2021/03/13 09:31:29;;;;;;;7.80;4.53;;;;;;;;;;5034028;28;20787;-53
2021/03/13 09:34:12;;;;;;;7.17;5.10;;;;;;;;;;5034172;28;20247;-53
2021/03/13 09:36:39;;;;;;;7.10;5.10;;;;;;;;;;5034711;28;20286;-53
2021/03/13 09:39:06;;;;;;;5.70;4.27;;;;;;;;;;5033773;28;20365;-53
2021/03/13 09:41:32;;;;;;;6.13;4.10;;;;;;;;;;5034088;28;20251;-53
2021/03/13 09:43:59;;;;;;;7.53;4.87;;;;;;;;;;5033865;28;20255;-53
2021/03/13 09:46:30;;;;;;;7.60;5.00;;;;;;;;;;5033828;28;20730;-53
2021/03/13 09:48:58;;;;;;;8.57;6.10;;;;;;;;;;5033603;28;20341;-53
2021/03/13 09:51:25;;;;;;;10.40;6.33;;;;;;;;;;5033717;28;20254;-53
2021/03/13 09:53:53;;;;;;;10.50;6.10;;;;;;;;;;5033560;28;20255;-53
2021/03/13 09:56:29;;;;;;;10.30;5.70;;;;;;;;;;5033517;28;20675;-53
2021/03/13 09:58:59;;;;;;;9.47;6.00;;;;;;;;;;5033465;28;20286;-53
2021/03/13 10:01:26;;;;;;;8.73;6.07;;;;;;;;;;5033420;28;20247;-53
2021/03/13 10:03:53;;;;;;;10.07;5.97;;;;;;;;;;5033795;28;20255;-53
2021/03/13 10:06:20;;;;;;;7.43;5.27;;;;;;;;;;5033459;28;20429;-53
2021/03/13 10:08:47;;;;;;;8.67;5.00;;;;;;;;;;5033205;28;20599;-53
2021/03/13 10:11:13;;;;;;;8.07;4.50;;;;;;;;;;5033331;28;20305;-53
2021/03/13 10:13:40;;;;;;;7.00;4.30;;;;;;;;;;5033265;28;20263;-53
2021/03/13 10:16:12;;;;;;;7.00;4.30;;;;;;;;;;5033241;28;20261;-53
2021/03/13 10:18:38;;;;;;;6.63;4.17;;;;;;;;;;5032982;28;20314;-53
2021/03/13 10:21:07;;;;;;;5.83;3.93;;;;;;;;;;5033173;28;20262;-53
2021/03/13 10:23:34;;;;;;;5.37;3.53;;;;;;;;;;5033125;28;20282;-53
2021/03/13 10:26:13;;;;;;;5.80;3.60;;;;;;;;;;5032985;28;20599;-53
2021/03/13 10:28:41;;;;;;;8.07;3.47;;;;;;;;;;5032869;28;20337;-53
2021/03/13 10:31:09;;;;;;;9.83;4.93;;;;;;;;;;5033076;28;20258;-53
2021/03/13 10:33:36;;;;;;;7.60;5.40;;;;;;;;;;5032091;28;20333;-53
2021/03/13 10:36:03;;;;;;;7.07;4.17;;;;;;;;;;5034405;28;20264;-53
2021/03/13 10:38:30;;;;;;;6.87;4.47;;;;;;;;;;5032754;28;20836;-53
2021/03/13 10:40:57;;;;;;;5.57;3.53;;;;;;;;;;5032953;28;20278;-53
2021/03/13 10:43:31;;;;;;;5.00;3.50;;;;;;;;;;5032908;28;20270;-53
2021/03/13 10:45:58;;;;;;;5.37;3.60;;;;;;;;;;5032761;28;20746;-53
2021/03/13 10:48:25;;;;;;;5.23;2.70;;;;;;;;;;5032606;28;20291;-53
2021/03/13 10:50:52;;;;;;;8.17;3.63;;;;;;;;;;5032691;28;20255;-53
2021/03/13 10:53:28;;;;;;;7.27;5.27;;;;;;;;;;5032791;28;20258;-53
2021/03/13 10:55:56;;;;;;;9.83;5.30;;;;;;;;;;5032675;28;20254;-53
2021/03/13 10:58:24;;;;;;;7.40;4.77;;;;;;;;;;5032452;28;20315;-53
2021/03/13 11:00:51;;;;;;;10.07;5.87;;;;;;;;;;5032642;28;20637;-54
2021/03/13 11:03:18;;;;;;;10.77;6.40;;;;;;;;;;5032724;28;20705;-53
2021/03/13 11:05:44;;;;;;;8.57;5.60;;;;;;;;;;5032669;28;20253;-53
2021/03/13 11:08:12;;;;;;;10.10;5.60;;;;;;;;;;5032609;28;20338;-54
2021/03/13 11:10:39;;;;;;;8.33;4.97;;;;;;;;;;5032532;28;20258;-53
2021/03/13 11:13:06;;;;;;;8.10;4.63;;;;;;;;;;5032633;28;20674;-53
2021/03/13 11:15:33;;;;;;;8.90;4.70;;;;;;;;;;5032607;28;20586;-53
2021/03/13 11:18:00;;;;;;;6.10;3.90;;;;;;;;;;5032736;28;20251;-53
2021/03/13 11:20:26;;;;;;;7.90;5.10;;;;;;;;;;5032410;28;20599;-53
2021/03/13 11:22:53;;;;;;;9.67;4.70;;;;;;;;;;5032421;28;20247;-53
2021/03/13 11:25:20;;;;;;;7.00;4.63;;;;;;;;;;5032504;28;20270;-53
2021/03/13 11:27:47;;;;;;;10.57;5.27;;;;;;;;;;5032411;28;20285;-53
2021/03/13 11:30:14;;;;;;;7.73;4.53;;;;;;;;;;5032322;28;20259;-53
2021/03/13 11:32:41;;;;;;;8.70;5.90;;;;;;;;;;5032463;28;20737;-53
2021/03/13 11:35:08;;;;;;;7.77;5.13;;;;;;;;;;5032276;28;20610;-53
2021/03/13 11:37:36;;;;;;;9.63;5.30;;;;;;;;;;5033503;28;20777;-53
2021/03/13 11:40:07;;;;;;;7.27;4.80;;;;;;;;;;5032261;28;20340;-53
2021/03/13 11:42:34;;;;;;;7.30;4.73;;;;;;;;;;5032208;28;20250;-53
2021/03/13 11:45:00;;;;;;;5.53;3.57;;;;;;;;;;5034616;28;20251;-53
2021/03/13 11:47:28;;;;;;;7.03;4.53;;;;;;;;;;5036124;28;20257;-53
2021/03/13 11:49:55;;;;;;;9.33;5.50;;;;;;;;;;5035921;28;20398;-53
2021/03/13 11:52:22;;;;;;;8.87;5.60;;;;;;;;;;5018090;28;20279;-53
2021/03/13 11:54:52;;;;;;;6.70;4.87;;;;;;;;;;5035871;28;20354;-53
2021/03/13 11:57:20;;;;;;;7.63;5.07;;;;;;;;;;5035904;28;20250;-53
2021/03/13 11:59:49;;;;;;;8.40;5.17;;;;;;;;;;5035784;28;20286;-53
2021/03/13 12:02:17;;;;;;;8.97;5.00;;;;;;;;;;5035770;28;20333;-53
2021/03/13 12:04:44;;;;;;;9.20;5.20;;;;;;;;;;5035590;28;20249;-53
2021/03/13 12:07:11;;;;;;;6.70;3.97;;;;;;;;;;5035603;28;20591;-53
2021/03/13 12:09:38;;;;;;;5.83;4.23;;;;;;;;;;5035564;28;20242;-53
2021/03/13 12:12:06;;;;;;;10.50;5.03;;;;;;;;;;5035550;28;20290;-53
2021/03/13 12:14:35;;;;;;;9.80;5.30;;;;;;;;;;5035573;28;20274;-53
2021/03/13 12:17:03;;;;;;;8.73;4.83;;;;;;;;;;5035282;28;20333;-53
2021/03/13 12:19:30;;;;;;;8.57;5.10;;;;;;;;;;5035397;28;20845;-53
2021/03/13 12:21:58;;;;;;;8.17;3.87;;;;;;;;;;5035335;28;20254;-53
2021/03/13 12:24:24;;;;;;;8.23;4.33;;;;;;;;;;5035400;28;20263;-53
2021/03/13 12:26:51;;;;;;;7.17;5.43;;;;;;;;;;5035179;28;20357;-53
2021/03/13 12:29:18;;;;;;;4.80;3.30;;;;;;;;;;5017431;28;20289;-53
2021/03/13 12:31:45;;;;;;;7.20;2.27;;;;;;;;;;5035133;28;20289;-53
2021/03/13 12:34:12;;;;;;;7.57;3.60;;;;;;;;;;5035181;28;20255;-56
2021/03/13 12:36:38;;;;;;;11.77;5.50;;;;;;;;;;5018883;28;20425;-53
2021/03/13 12:39:05;;;;;;;10.00;4.73;;;;;;;;;;5034937;28;20281;-53
2021/03/13 12:41:32;;;;;;;8.23;5.50;;;;;;;;;;5034914;28;20265;-56
2021/03/13 12:43:59;;;;;;;8.80;4.90;;;;;;;;;;5035052;28;20253;-53
2021/03/13 12:46:26;;;;;;;7.97;4.97;;;;;;;;;;5034830;28;20253;-53
2021/03/13 12:48:53;;;;;;;7.97;4.37;;;;;;;;;;5035219;28;20243;-53
2021/03/13 12:51:20;;;;;;;8.93;4.90;;;;;;;;;;5034835;28;20243;-53
2021/03/13 12:53:47;;;;;;;7.27;4.70;;;;;;;;;;5034783;28;20265;-53
2021/03/13 12:56:14;;;;;;;9.43;5.27;;;;;;;;;;5033824;28;20247;-53
2021/03/13 12:58:41;;;;;;;10.37;4.33;;;;;;;;;;5034526;28;20287;-53
2021/03/13 13:01:08;;;;;;;9.73;4.67;;;;;;;;;;5034606;28;20286;-53
2021/03/13 13:03:35;;;;;;;8.13;4.50;;;;;;;;;;5034576;28;20341;-53
2021/03/13 13:06:02;;;;;;;13.70;6.23;;;;;;;;;;5016811;28;20754;-53
2021/03/13 13:08:29;;;;;;;12.37;6.23;;;;;;;;;;5034417;28;20674;-53
2021/03/13 13:10:56;;;;;;;12.80;5.63;;;;;;;;;;5034469;28;20269;-53
2021/03/13 13:13:24;;;;;;;7.97;4.13;;;;;;;;;;5034283;28;20683;-53
2021/03/13 13:15:52;;;;;;;14.37;4.40;;;;;;;;;;5034335;28;20334;-53
2021/03/13 13:18:22;;;;;;;11.90;5.83;;;;;;;;;;5034251;28;20266;-53
2021/03/13 13:20:49;;;;;;;12.07;6.10;;;;;;;;;;5034209;28;20669;-53
2021/03/13 13:23:16;;;;;;;22.87;5.93;;;;;;;;;;5034120;28;20301;-53
2021/03/13 13:25:45;;;;;;;23.47;6.63;;;;;;;;;;5033999;28;20346;-53
2021/03/13 13:28:12;;;;;;;11.17;5.93;;;;;;;;;;5034021;28;20282;-53
2021/03/13 13:30:39;;;;;;;16.57;6.33;;;;;;;;;;5034200;28;20265;-53
2021/03/13 13:33:06;;;;;;;15.27;6.03;;;;;;;;;;5034132;28;20266;-53
2021/03/13 13:35:33;;;;;;;15.10;6.37;;;;;;;;;;5034019;28;20278;-53
2021/03/13 13:38:00;;;;;;;14.43;6.20;;;;;;;;;;5035150;28;20433;-54
2021/03/13 13:40:27;;;;;;;15.97;5.37;;;;;;;;;;5033883;28;20817;-53
2021/03/13 13:42:54;;;;;;;10.77;4.43;;;;;;;;;;5033880;28;20756;-54
2021/03/13 13:45:21;;;;;;;13.63;5.77;;;;;;;;;;5033774;28;20263;-54
2021/03/13 13:47:48;;;;;;;12.17;5.87;;;;;;;;;;5015842;28;20294;-54
2021/03/13 13:50:18;;;;;;;7.80;5.27;;;;;;;;;;5033696;28;20658;-54
2021/03/13 13:52:46;;;;;;;20.90;6.00;;;;;;;;;;5033595;28;20599;-54
2021/03/13 13:55:17;;;;;;;10.83;5.90;;;;;;;;;;5033513;28;20283;-54
2021/03/13 13:57:44;;;;;;;24.30;8.27;;;;;;;;;;5033455;28;20297;-54
2021/03/13 14:00:12;;;;;;;13.60;5.60;;;;;;;;;;5033379;28;20526;-54
2021/03/13 14:02:39;;;;;;;13.03;7.13;;;;;;;;;;5033493;28;20037;-54
2021/03/13 14:05:07;;;;;;;14.80;6.80;;;;;;;;;;5033493;28;20468;-54
2021/03/13 14:07:35;;;;;;;16.53;7.67;;;;;;;;;;5033247;28;20021;-54
2021/03/13 14:10:01;;;;;;;32.20;18.03;;;;;;;;;;5033278;28;20022;-54
2021/03/13 14:12:28;;;;;;;22.17;12.57;;;;;;;;;;5033610;28;20081;-54
2021/03/13 14:14:55;;;;;;;18.60;8.23;;;;;;;;;;5033328;28;20039;-54
2021/03/13 14:17:22;;;;;;;14.60;6.87;;;;;;;;;;5033214;28;20073;-54
2021/03/13 14:19:48;;;;;;;8.67;5.93;;;;;;;;;;5033058;28;20104;-54
2021/03/13 14:22:15;;;;;;;11.20;6.27;;;;;;;;;;5032992;28;20025;-54
2021/03/13 14:24:42;;;;;;;10.90;6.23;;;;;;;;;;5033082;28;20068;-54
2021/03/13 14:27:09;;;;;;;17.73;7.27;;;;;;;;;;5033168;28;20025;-54
2021/03/13 14:29:36;;;;;;;10.77;6.67;;;;;;;;;;5032881;28;20040;-54
2021/03/13 14:32:04;;;;;;;10.57;7.00;;;;;;;;;;5032931;28;20033;-54
2021/03/13 14:34:31;;;;;;;11.50;7.17;;;;;;;;;;5033054;28;20029;-54
2021/03/13 14:36:58;;;;;;;11.63;6.83;;;;;;;;;;5034295;28;20112;-55
2021/03/13 14:39:25;;;;;;;12.33;7.60;;;;;;;;;;5032763;28;20396;-55
2021/03/13 14:41:54;;;;;;;14.37;8.43;;;;;;;;;;5032882;28;20021;-54
2021/03/13 14:44:21;;;;;;;13.73;8.17;;;;;;;;;;5033234;28;20026;-55